createdAt,value
2019-02-04T01:21:16.100Z,-0.70
2019-02-04T01:24:01.583Z,-0.80
2019-02-04T01:54:18.028Z,-0.60
2019-02-04T01:56:49.020Z,-0.50
2019-02-04T01:59:23.871Z,-0.40
2019-02-04T02:05:25.966Z,-0.20
2019-02-04T02:08:14.748Z,-0.20
2019-02-04T02:10:53.176Z,0.00
2019-02-04T02:13:25.669Z,0.00
2019-02-04T02:16:05.868Z,0.10
2019-02-04T02:18:46.638Z,0.20
2019-02-04T02:36:27.204Z,0.30
2019-02-04T02:39:16.401Z,0.40
2019-02-04T02:46:17.225Z,0.30
2019-02-04T02:49:43.650Z,0.30
2019-02-04T07:54:06.770Z,2.10
2019-02-04T07:57:10.716Z,2.10
2019-02-04T08:00:06.436Z,2.10
2019-02-04T08:03:14.948Z,2.10
2019-02-04T08:06:21.285Z,2.10
2019-02-04T08:09:28.506Z,2.10
2019-02-04T08:15:12.574Z,2.10
2019-02-04T08:17:50.684Z,2.20
2019-02-04T08:20:36.271Z,2.20
2019-02-04T08:23:08.043Z,2.20
2019-02-04T08:25:40.052Z,2.20
2019-02-04T08:28:14.309Z,2.30
2019-02-04T08:30:42.551Z,2.20
2019-02-04T08:33:10.940Z,2.30
2019-02-04T08:35:41.997Z,2.20
2019-02-04T08:38:10.791Z,2.30
2019-02-04T08:40:41.018Z,2.30
2019-02-04T08:43:09.115Z,2.40
2019-02-04T08:45:38.178Z,2.40
2019-02-04T08:48:06.265Z,2.50
2019-02-04T08:50:34.314Z,2.50
2019-02-04T08:53:02.551Z,2.50
2019-02-04T08:55:36.149Z,2.50
2019-02-04T08:58:05.175Z,2.60
2019-02-04T09:00:38.879Z,2.60
2019-02-04T09:03:07.973Z,2.70
2019-02-04T09:05:37.440Z,2.70
2019-02-04T09:08:05.739Z,2.70
2019-02-04T09:10:34.463Z,2.80
2019-02-04T09:13:02.650Z,2.90
2019-02-04T09:15:32.561Z,2.90
2019-02-04T09:18:03.082Z,2.90
2019-02-04T09:20:31.763Z,3.00
2019-02-04T09:23:00.066Z,3.00
2019-02-04T09:25:31.310Z,3.10
2019-02-04T09:28:05.084Z,3.10
2019-02-04T09:30:33.212Z,3.10
2019-02-04T09:33:01.970Z,3.20
2019-02-04T09:35:30.527Z,3.20
2019-02-04T09:37:59.294Z,3.30
2019-02-04T09:40:30.470Z,3.30
2019-02-04T09:42:58.914Z,3.30
2019-02-04T09:45:27.893Z,3.40
2019-02-04T09:47:56.322Z,3.40
2019-02-04T09:50:24.700Z,3.40
2019-02-04T09:52:53.170Z,3.50
2019-02-04T09:55:29.222Z,3.50
2019-02-04T09:58:02.326Z,3.50
2019-02-04T10:00:34.842Z,3.60
2019-02-04T10:03:07.776Z,3.60
2019-02-04T10:05:37.270Z,3.70
2019-02-04T10:08:06.610Z,3.70
2019-02-04T10:10:37.373Z,3.80
2019-02-04T10:13:06.436Z,3.80
2019-02-04T10:15:36.747Z,3.80
2019-02-04T10:18:06.254Z,3.80
2019-02-04T10:20:34.845Z,3.90
2019-02-04T10:23:03.873Z,3.80
2019-02-04T10:25:37.004Z,3.90
2019-02-04T10:28:06.273Z,3.90
2019-02-04T10:30:34.524Z,4.00
2019-02-04T10:33:02.691Z,4.00
2019-02-04T10:35:32.126Z,4.00
2019-02-04T10:38:03.659Z,4.00
2019-02-04T10:40:39.918Z,4.00
2019-02-04T10:43:12.563Z,4.10
2019-02-04T10:45:45.529Z,4.10
2019-02-04T10:48:20.216Z,4.00
2019-02-04T10:50:55.885Z,4.10
2019-02-04T10:53:35.322Z,4.10
2019-02-04T10:56:12.876Z,4.10
2019-02-04T10:58:49.148Z,4.10
2019-02-04T11:01:26.513Z,4.10
2019-02-04T11:04:12.696Z,4.10
2019-02-04T11:06:48.411Z,4.10
2019-02-04T11:09:38.071Z,4.10
2019-02-04T11:12:06.578Z,4.10
2019-02-04T11:14:39.611Z,4.20
2019-02-04T11:17:07.300Z,4.20
2019-02-04T11:19:35.704Z,4.20
2019-02-04T11:22:03.856Z,4.30
2019-02-04T11:24:31.697Z,4.30
2019-02-04T11:26:59.325Z,4.30
2019-02-04T11:29:27.381Z,4.40
2019-02-04T11:31:55.097Z,4.40
2019-02-04T11:34:23.172Z,4.40
2019-02-04T11:36:50.936Z,4.40
2019-02-04T11:39:20.537Z,4.40
2019-02-04T11:41:48.165Z,4.30
2019-02-04T11:44:19.162Z,4.40
2019-02-04T11:46:46.810Z,4.40
2019-02-04T11:49:14.585Z,4.40
2019-02-04T11:51:42.377Z,4.40
2019-02-04T11:54:09.979Z,4.40
2019-02-04T11:56:37.578Z,4.40
2019-02-04T11:59:08.438Z,4.40
2019-02-04T12:01:37.212Z,4.40
2019-02-04T12:04:05.332Z,4.40
2019-02-04T12:06:34.963Z,4.40
2019-02-04T12:09:04.541Z,4.40
2019-02-04T12:11:32.145Z,4.40
2019-02-04T12:14:00.254Z,4.40
2019-02-04T12:16:28.312Z,4.40
2019-02-04T12:18:55.915Z,4.40
2019-02-04T12:21:26.931Z,4.40
2019-02-04T12:23:55.145Z,4.40
2019-02-04T12:26:22.966Z,4.40
2019-02-04T12:28:50.741Z,4.40
2019-02-04T12:31:18.707Z,4.50
2019-02-04T12:33:46.317Z,4.50
2019-02-04T12:36:13.887Z,4.50
2019-02-04T12:38:42.057Z,4.50
2019-02-04T12:41:13.012Z,4.50
2019-02-04T12:43:41.827Z,4.50
2019-02-04T12:46:09.669Z,4.50
2019-02-04T12:48:37.712Z,4.60
2019-02-04T12:51:05.821Z,4.60
2019-02-04T12:53:49.403Z,4.60
2019-02-04T12:56:17.113Z,4.70
2019-02-04T12:58:55.289Z,4.60
2019-02-04T13:01:14.788Z,4.60
2019-02-04T13:03:42.533Z,4.60
2019-02-04T13:06:11.541Z,4.60
2019-02-04T13:08:39.433Z,4.70
2019-02-04T13:11:07.291Z,4.70
2019-02-04T13:13:35.345Z,4.80
2019-02-04T13:16:03.278Z,4.80
2019-02-04T13:18:30.932Z,4.80
2019-02-04T13:20:58.632Z,4.90
2019-02-04T13:23:26.450Z,4.90
2019-02-04T13:25:54.057Z,4.90
2019-02-04T13:28:22.275Z,4.90
2019-02-04T13:30:50.084Z,4.90
2019-02-04T13:33:21.442Z,4.90
2019-02-04T13:35:49.367Z,4.90
2019-02-04T13:38:16.994Z,4.80
2019-02-04T13:40:47.430Z,4.80
2019-02-04T13:43:15.202Z,4.70
2019-02-04T13:45:43.145Z,4.70
2019-02-04T13:48:11.302Z,4.60
2019-02-04T13:50:39.365Z,4.60
2019-02-04T13:53:07.750Z,4.50
2019-02-04T13:55:35.600Z,4.50
2019-02-04T13:58:03.368Z,4.40
2019-02-04T14:00:30.988Z,4.30
2019-02-04T14:02:59.855Z,4.30
2019-02-04T14:05:31.101Z,4.30
2019-02-04T14:08:00.207Z,4.30
2019-02-04T14:10:30.586Z,4.30
2019-02-04T14:12:58.180Z,4.30
2019-02-04T14:15:26.289Z,4.30
2019-02-04T14:17:55.402Z,4.30
2019-02-04T14:20:23.282Z,4.30
2019-02-04T14:22:53.330Z,4.30
2019-02-04T14:25:20.472Z,4.30
2019-02-04T14:27:48.535Z,4.30
2019-02-04T14:30:19.836Z,4.30
2019-02-04T14:32:50.177Z,4.30
2019-02-04T14:35:21.261Z,4.30
2019-02-04T14:37:54.007Z,4.30
2019-02-04T14:40:21.979Z,4.30
2019-02-04T14:42:52.800Z,4.30
2019-02-04T14:45:32.764Z,4.30
2019-02-04T14:48:34.338Z,4.30
2019-02-04T14:51:35.693Z,4.30
2019-02-04T14:54:54.807Z,4.30
2019-02-04T14:57:31.945Z,4.20
2019-02-04T15:00:25.272Z,4.10
2019-02-04T15:03:02.396Z,4.10
2019-02-04T15:05:55.051Z,4.00
2019-02-04T15:09:09.605Z,4.00
2019-02-04T15:12:31.808Z,4.00
2019-02-04T15:15:28.467Z,4.00
2019-02-04T15:18:34.254Z,4.00
2019-02-04T15:21:46.359Z,4.00
2019-02-04T15:24:40.721Z,3.90
2019-02-04T15:27:43.299Z,3.90
2019-02-04T15:30:43.441Z,3.90
2019-02-04T15:33:27.473Z,3.90
2019-02-04T15:36:25.398Z,3.80
2019-02-04T15:42:42.248Z,3.70
2019-02-04T15:45:46.189Z,3.70
2019-02-04T15:48:27.905Z,3.70
2019-02-04T15:51:10.422Z,3.60
2019-02-04T15:56:43.519Z,3.60
2019-02-04T15:59:16.404Z,3.60
2019-02-04T16:01:47.109Z,3.50
2019-02-04T16:04:49.778Z,3.50
2019-02-04T16:08:23.474Z,3.50
2019-02-04T16:10:55.522Z,3.50
2019-02-04T16:13:23.881Z,3.40
2019-02-04T16:19:15.015Z,3.40
2019-02-04T16:21:54.844Z,3.40
2019-02-04T16:24:33.127Z,3.40
2019-02-04T16:27:41.198Z,3.40
2019-02-04T16:30:19.896Z,3.40
2019-02-04T16:33:31.038Z,3.40
2019-02-04T16:36:12.443Z,3.40
2019-02-04T16:39:44.195Z,3.40
2019-02-04T16:42:30.722Z,3.40
2019-02-04T16:45:08.120Z,3.40
2019-02-04T16:48:20.438Z,3.40
2019-02-04T16:51:10.486Z,3.30
2019-02-04T17:00:11.915Z,3.30
2019-02-04T17:02:39.616Z,3.30
2019-02-04T17:05:09.348Z,3.30
2019-02-04T17:08:34.784Z,3.30
2019-02-04T17:14:18.784Z,3.20
2019-02-04T17:17:17.443Z,3.30
2019-02-04T17:20:07.556Z,3.20
2019-02-04T17:22:39.497Z,3.20
2019-02-04T17:31:49.131Z,3.30
2019-02-04T17:34:30.564Z,3.30
2019-02-04T17:40:39.757Z,3.30
2019-02-04T17:43:08.054Z,3.30
2019-02-04T17:45:55.144Z,3.30
2019-02-04T17:48:32.271Z,3.20
2019-02-04T17:51:53.406Z,3.20
2019-02-04T17:58:31.452Z,3.30
2019-02-04T18:01:42.983Z,3.30
2019-02-04T18:04:20.589Z,3.20
2019-02-04T18:10:34.072Z,3.20
2019-02-04T18:13:35.793Z,3.20
2019-02-04T18:16:29.433Z,3.20
2019-02-04T18:18:57.269Z,3.20
2019-02-04T18:21:27.859Z,3.20
2019-02-04T18:23:57.871Z,3.30
2019-02-04T18:26:33.370Z,3.30
2019-02-04T18:29:01.088Z,3.30
2019-02-04T18:31:34.067Z,3.30
2019-02-04T18:34:19.453Z,3.30
2019-02-04T18:37:06.918Z,3.30
2019-02-04T18:39:43.095Z,3.20
2019-02-04T18:42:25.350Z,3.20
2019-02-04T18:44:55.394Z,3.20
2019-02-04T18:47:42.280Z,3.20
2019-02-04T18:50:12.121Z,3.20
2019-02-04T18:52:42.269Z,3.10
2019-02-04T18:55:12.812Z,3.20
2019-02-04T18:57:40.541Z,3.20
2019-02-04T19:00:09.984Z,3.20
2019-02-04T19:02:38.316Z,3.20
2019-02-04T19:05:06.998Z,3.20
2019-02-04T19:08:22.389Z,3.10
2019-02-04T19:10:53.457Z,3.10
2019-02-04T19:13:35.437Z,3.10
2019-02-04T19:15:53.786Z,3.10
2019-02-04T19:18:33.072Z,3.10
2019-02-04T19:21:11.656Z,3.10
2019-02-04T19:23:39.506Z,3.10
2019-02-04T19:26:07.319Z,3.10
2019-02-04T19:28:35.412Z,3.10
2019-02-04T19:31:09.967Z,3.10
2019-02-04T19:33:45.511Z,3.10
2019-02-04T19:36:13.230Z,3.10
2019-02-04T19:38:53.368Z,3.10
2019-02-04T19:41:21.152Z,3.10
2019-02-04T19:43:48.955Z,3.10
2019-02-04T19:46:16.875Z,3.10
2019-02-04T19:48:59.158Z,3.10
2019-02-04T19:51:26.872Z,3.20
2019-02-04T19:53:54.524Z,3.10
2019-02-04T19:56:22.290Z,3.10
2019-02-04T19:58:50.313Z,3.10
2019-02-04T20:01:17.938Z,3.20
2019-02-04T20:03:45.627Z,3.10
2019-02-04T20:06:13.466Z,3.10
2019-02-04T20:08:44.385Z,3.10
2019-02-04T20:11:12.081Z,3.10
2019-02-04T20:13:39.698Z,3.10
2019-02-04T20:16:07.454Z,3.10
2019-02-04T20:18:35.113Z,3.10
2019-02-04T20:21:03.286Z,3.10
2019-02-04T20:23:31.079Z,3.10
2019-02-04T20:25:58.704Z,3.10
2019-02-04T20:28:26.326Z,3.10
2019-02-04T20:30:55.340Z,3.10
2019-02-04T20:33:25.957Z,3.10
2019-02-04T20:35:53.622Z,3.10
2019-02-04T20:39:18.099Z,3.10
2019-02-04T20:41:26.592Z,3.10
2019-02-04T20:44:19.134Z,3.10
2019-02-04T20:47:15.112Z,3.10
2019-02-04T20:49:51.006Z,3.10
2019-02-04T20:52:22.622Z,3.10
2019-02-04T20:54:58.003Z,3.10
2019-02-04T20:57:37.207Z,3.10
2019-02-04T21:00:10.099Z,3.10
2019-02-04T21:02:40.369Z,3.10
2019-02-04T21:05:15.098Z,3.10
2019-02-04T21:08:20.382Z,3.20
2019-02-04T21:13:45.294Z,3.20
2019-02-04T21:16:25.835Z,3.20
2019-02-04T21:19:02.856Z,3.20
2019-02-04T21:25:20.404Z,3.20
2019-02-04T21:28:07.540Z,3.20
2019-02-04T21:30:46.798Z,3.20
2019-02-04T21:33:16.980Z,3.10
2019-02-04T21:35:54.035Z,3.20
2019-02-04T21:38:47.822Z,3.20
2019-02-04T21:41:18.619Z,3.20
2019-02-04T21:43:46.223Z,3.20
2019-02-04T21:46:43.733Z,3.20
2019-02-04T21:49:17.968Z,3.20
2019-02-04T21:51:46.805Z,3.20
2019-02-04T21:54:14.776Z,3.20
2019-02-04T21:56:54.791Z,3.20
2019-02-04T21:59:24.682Z,3.20
2019-02-04T22:01:52.330Z,3.20
2019-02-04T22:04:21.167Z,3.30
2019-02-04T22:10:32.667Z,3.30
2019-02-04T22:13:02.997Z,3.30
2019-02-04T22:15:30.684Z,3.30
2019-02-04T22:18:04.072Z,3.30
2019-02-04T22:20:32.255Z,3.30
2019-02-04T22:23:03.682Z,3.30
2019-02-04T22:25:33.105Z,3.30
2019-02-04T22:28:06.955Z,3.30
2019-02-04T22:30:36.468Z,3.50
2019-02-04T22:33:04.139Z,3.30
2019-02-04T22:35:31.731Z,3.30
2019-02-04T22:38:11.745Z,3.30
2019-02-04T22:40:39.505Z,3.30
2019-02-04T22:43:07.061Z,3.30
2019-02-04T22:45:37.915Z,3.30
2019-02-04T22:48:17.270Z,3.30
2019-02-04T22:50:44.942Z,3.30
2019-02-04T22:53:12.624Z,3.30
2019-02-04T22:55:40.237Z,3.30
2019-02-04T22:58:07.889Z,3.30
2019-02-04T23:00:57.899Z,3.40
2019-02-04T23:03:26.206Z,3.30
2019-02-04T23:05:56.894Z,3.40
2019-02-04T23:08:26.626Z,3.40
2019-02-04T23:10:54.227Z,3.40
2019-02-04T23:13:21.744Z,3.40
2019-02-04T23:15:49.416Z,3.40
2019-02-04T23:18:21.323Z,3.40
2019-02-04T23:20:48.908Z,3.40
2019-02-04T23:23:16.454Z,3.40
2019-02-04T23:25:44.321Z,3.50
2019-02-04T23:28:24.574Z,3.50
2019-02-04T23:30:52.148Z,3.50
2019-02-04T23:33:19.804Z,3.50
2019-02-04T23:35:47.641Z,3.40
2019-02-04T23:38:24.873Z,3.40
2019-02-04T23:40:52.415Z,3.50
2019-02-04T23:43:20.430Z,3.50
2019-02-04T23:45:48.028Z,3.50
2019-02-04T23:48:21.250Z,3.50
2019-02-04T23:50:50.419Z,3.40
2019-02-04T23:53:18.017Z,3.40
2019-02-04T23:55:54.377Z,3.40
2019-02-04T23:58:17.321Z,3.40
